Terminal Aerodrome Forecast
Issued by NWS Cheyenne, WY

Home | Current Version | Previous Version | Text Only | Print | Product List | Glossary On
Versions: 1 2 3 4 5 6 7 8 9 10 11 12 13 14 15 16 17 18 19 20 21 22 23 24 25 26
000
FTUS45 KCYS 221720
TAFCYS
TAF
KCYS 221720Z 2218/2318 31017G25KT P6SM FEW070
     FM222100 33020G28KT 5SM -SHRA VCTS SCT035CB OVC060
     FM222300 31018KT P6SM VCSH BKN050
     FM230300 32011KT P6SM SCT025 BKN050=

USA.gov is the U.S. government's official web portal to all federal, state and local government web resources and services.